Time;durP1;ratioP1;P1;durP2;ratioP2;P2;SDS_P1;SDS_P2;PMS_P1;PMS_P2;Temp;Humidity;BMP_temperature;BMP_pressure;BME280_temperature;BME280_humidity;BME280_pressure;Samples;Min_cycle;Max_cycle;Signal;HPM_P1;HPM_P2
2022/06/19 00:02:25;;;;;;;7.00;3.30;;;23.00;74.50;;;;;;6079732;23;20010;-74
2022/06/19 00:04:54;;;;;;;5.95;3.55;;;23.00;74.70;;;;;;6081821;23;20052;-74
2022/06/19 00:07:20;;;;;;;8.57;3.90;;;22.90;74.80;;;;;;6082060;23;20029;-74
2022/06/19 00:09:47;;;;;;;5.55;3.60;;;22.90;74.90;;;;;;6081398;23;20479;-74
2022/06/19 00:12:13;;;;;;;4.10;3.70;;;22.90;75.10;;;;;;6081296;23;20444;-74
2022/06/19 00:14:39;;;;;;;6.07;3.42;;;22.90;75.10;;;;;;6081335;23;20019;-74
2022/06/19 00:17:06;;;;;;;4.78;3.50;;;22.90;75.20;;;;;;6079411;23;20022;-74
2022/06/19 00:19:32;;;;;;;6.75;3.92;;;22.90;75.40;;;;;;6091609;23;20011;-74
2022/06/19 00:21:58;;;;;;;8.55;3.90;;;22.80;75.50;;;;;;6079076;23;20093;-74
2022/06/19 00:24:24;;;;;;;7.30;3.85;;;22.80;75.70;;;;;;6081474;23;20030;-74
2022/06/19 00:26:50;;;;;;;7.28;4.13;;;22.70;75.80;;;;;;6080721;23;20331;-74
2022/06/19 00:29:16;;;;;;;6.40;4.28;;;22.70;76.00;;;;;;6082566;23;20038;-74
2022/06/19 00:31:41;;;;;;;7.40;4.30;;;22.70;76.40;;;;;;6079516;23;20077;-74
2022/06/19 00:34:08;;;;;;;5.85;4.07;;;22.60;76.60;;;;;;6081802;23;20093;-74
2022/06/19 00:36:34;;;;;;;5.85;4.03;;;22.60;76.60;;;;;;6079648;23;20015;-74
2022/06/19 00:39:00;;;;;;;8.45;4.18;;;22.60;76.60;;;;;;6081542;23;20119;-74
2022/06/19 00:41:36;;;;;;;5.03;4.50;;;22.60;76.60;;;;;;6082173;23;20006;-74
2022/06/19 00:44:05;;;;;;;9.55;4.57;;;22.60;76.70;;;;;;6082105;23;20060;-74
2022/06/19 00:46:46;;;;;;;6.18;4.30;;;22.70;76.80;;;;;;6081947;23;20015;-74
2022/06/19 00:49:27;;;;;;;10.32;4.25;;;22.60;76.80;;;;;;6082334;23;20018;-74
2022/06/19 00:52:18;;;;;;;6.03;4.13;;;22.60;76.90;;;;;;6082187;23;20021;-74
2022/06/19 00:54:50;;;;;;;6.22;4.40;;;22.60;77.00;;;;;;6122019;23;20491;-74
2022/06/19 00:57:17;;;;;;;9.02;4.88;;;22.60;76.90;;;;;;6081631;23;20038;-74
2022/06/19 00:59:55;;;;;;;6.65;4.57;;;22.60;76.90;;;;;;6081678;23;20458;-74
2022/06/19 01:02:22;;;;;;;6.18;4.57;;;22.70;77.00;;;;;;6081111;23;20022;-75
2022/06/19 01:04:51;;;;;;;6.35;4.32;;;22.60;76.80;;;;;;6091490;23;20006;-74
2022/06/19 01:07:17;;;;;;;10.20;4.80;;;22.70;76.90;;;;;;6128518;23;20014;-74
2022/06/19 01:09:44;;;;;;;5.93;4.65;;;22.70;76.70;;;;;;6090949;23;20456;-74
2022/06/19 01:12:11;;;;;;;5.63;4.10;;;22.70;76.50;;;;;;6081457;23;20030;-74
2022/06/19 01:14:40;;;;;;;6.60;4.03;;;22.80;76.20;;;;;;6080892;23;20064;-74
2022/06/19 01:17:08;;;;;;;6.07;4.30;;;22.80;75.70;;;;;;6081141;23;20014;-74
2022/06/19 01:19:38;;;;;;;6.38;4.93;;;22.90;75.80;;;;;;6081804;23;20321;-74
2022/06/19 01:22:34;;;;;;;6.55;4.05;;;22.90;75.40;;;;;;6091347;23;20006;-74
2022/06/19 01:25:02;;;;;;;8.38;4.00;;;22.90;75.30;;;;;;6080670;23;20056;-74
2022/06/19 01:30:17;;;;;;;5.32;3.92;;;23.00;74.80;;;;;;6082641;23;20014;-74
2022/06/19 01:32:46;;;;;;;8.65;4.07;;;23.10;74.60;;;;;;6082375;23;20085;-74
2022/06/19 01:35:13;;;;;;;6.90;4.13;;;23.10;74.40;;;;;;6091937;23;20010;-74
2022/06/19 01:37:40;;;;;;;8.82;4.03;;;23.10;74.10;;;;;;6080440;23;20022;-73
2022/06/19 01:40:11;;;;;;;9.32;4.07;;;23.10;74.20;;;;;;6083474;23;20455;-74
2022/06/19 01:42:38;;;;;;;8.25;4.40;;;23.10;74.10;;;;;;6082815;23;20052;-74
2022/06/19 01:45:05;;;;;;;5.03;4.10;;;23.00;74.00;;;;;;6081929;23;20006;-74
2022/06/19 01:47:31;;;;;;;4.55;3.53;;;23.00;74.40;;;;;;6082291;23;20059;-74
2022/06/19 01:49:59;;;;;;;8.32;3.83;;;23.00;74.20;;;;;;6082536;23;20410;-74
2022/06/19 01:52:29;;;;;;;7.07;4.40;;;23.00;74.30;;;;;;6092364;23;20010;-74
2022/06/19 01:55:08;;;;;;;8.35;4.38;;;23.00;74.30;;;;;;6091138;23;20775;-74
2022/06/19 01:57:37;;;;;;;10.20;4.18;;;22.90;74.10;;;;;;6082659;23;20025;-75
2022/06/19 02:00:05;;;;;;;5.70;3.83;;;22.90;74.30;;;;;;6081770;23;20316;-75
2022/06/19 02:02:39;;;;;;;10.03;4.13;;;22.90;74.40;;;;;;6080512;23;20010;-75
2022/06/19 02:05:05;;;;;;;7.90;3.90;;;22.90;74.30;;;;;;6082245;23;20242;-75
2022/06/19 02:07:31;;;;;;;5.68;4.38;;;23.00;74.80;;;;;;6091229;23;20101;-75
2022/06/19 02:09:59;;;;;;;6.25;4.10;;;23.00;74.10;;;;;;6080447;23;20036;-75
2022/06/19 02:12:28;;;;;;;7.47;4.32;;;23.00;74.00;;;;;;6082097;23;20018;-75
2022/06/19 02:14:54;;;;;;;6.32;4.03;;;23.00;74.00;;;;;;6090691;23;20011;-75
2022/06/19 02:17:30;;;;;;;7.22;4.15;;;23.00;74.00;;;;;;6082167;23;20063;-75
2022/06/19 02:19:56;;;;;;;5.07;4.28;;;23.00;73.80;;;;;;6082446;23;20037;-76
2022/06/19 02:22:22;;;;;;;11.27;4.60;;;23.00;73.70;;;;;;6089972;23;20622;-75
2022/06/19 02:24:48;;;;;;;5.28;4.35;;;23.00;73.60;;;;;;6080999;23;20006;-75
2022/06/19 02:27:15;;;;;;;8.02;4.57;;;23.00;73.30;;;;;;6082073;23;20029;-75
2022/06/19 02:29:42;;;;;;;6.95;4.15;;;23.10;73.50;;;;;;6091429;23;20011;-74
2022/06/19 02:32:22;;;;;;;9.75;4.03;;;23.00;73.20;;;;;;6082600;23;20085;-75
2022/06/19 02:34:50;;;;;;;8.68;4.05;;;23.00;73.30;;;;;;6081291;23;20105;-74
2022/06/19 02:37:21;;;;;;;6.05;4.25;;;23.00;73.30;;;;;;6090449;23;20017;-75
2022/06/19 02:39:56;;;;;;;8.30;3.90;;;23.00;73.40;;;;;;6091778;23;20014;-75
2022/06/19 02:42:26;;;;;;;4.65;3.80;;;23.00;73.60;;;;;;6081442;23;20021;-75
2022/06/19 02:44:58;;;;;;;6.25;4.45;;;23.00;73.60;;;;;;6090827;23;20013;-75
2022/06/19 02:47:26;;;;;;;6.75;4.07;;;23.00;73.60;;;;;;6081331;23;20022;-75
2022/06/19 02:49:52;;;;;;;10.80;4.18;;;23.00;73.60;;;;;;6079790;23;20018;-75
2022/06/19 02:52:18;;;;;;;7.47;4.40;;;22.90;73.60;;;;;;6081745;23;20030;-75
2022/06/19 02:54:44;;;;;;;9.68;3.95;;;23.00;73.50;;;;;;6081279;23;20026;-75
2022/06/19 02:57:12;;;;;;;8.07;3.92;;;23.00;73.50;;;;;;6081123;23;20105;-75
2022/06/19 02:59:38;;;;;;;4.70;4.05;;;23.00;73.40;;;;;;6090502;23;20009;-75
2022/06/19 03:02:04;;;;;;;9.00;4.28;;;23.00;73.60;;;;;;6081610;23;20014;-75
2022/06/19 03:04:41;;;;;;;5.55;4.25;;;23.00;73.60;;;;;;6081152;23;20471;-75
2022/06/19 03:07:07;;;;;;;8.63;4.32;;;23.00;73.50;;;;;;6089108;23;20018;-75
2022/06/19 03:09:33;;;;;;;6.65;4.10;;;23.00;73.60;;;;;;6081981;23;20130;-75
2022/06/19 03:11:59;;;;;;;7.65;4.53;;;23.00;73.60;;;;;;6078934;23;20010;-76
2022/06/19 03:14:25;;;;;;;9.55;4.50;;;23.00;74.40;;;;;;6080926;23;20136;-75
2022/06/19 03:16:51;;;;;;;6.80;4.28;;;22.90;73.70;;;;;;6079782;23;20014;-75
2022/06/19 03:19:17;;;;;;;7.97;4.70;;;22.90;73.90;;;;;;6081427;23;20042;-75
2022/06/19 03:21:43;;;;;;;6.28;4.95;;;22.90;73.70;;;;;;6079184;23;20049;-75
2022/06/19 03:24:10;;;;;;;8.38;4.53;;;22.90;73.90;;;;;;6080284;23;20010;-75
2022/06/19 03:26:36;;;;;;;5.53;4.45;;;23.00;73.80;;;;;;6090011;23;20350;-74
2022/06/19 03:29:03;;;;;;;5.20;4.28;;;23.00;73.80;;;;;;6090268;23;20041;-75
2022/06/19 03:31:30;;;;;;;9.88;4.80;;;23.00;73.70;;;;;;6081292;23;20028;-75
2022/06/19 03:33:56;;;;;;;9.57;4.50;;;23.00;73.80;;;;;;6080937;23;20010;-74
2022/06/19 03:36:22;;;;;;;6.10;4.00;;;23.00;73.80;;;;;;6079239;23;20214;-75
2022/06/19 03:38:48;;;;;;;8.65;5.18;;;23.00;73.70;;;;;;6080782;23;20045;-75
2022/06/19 03:41:14;;;;;;;10.43;5.13;;;23.00;73.80;;;;;;6091656;23;20006;-75
2022/06/19 03:43:41;;;;;;;6.55;4.70;;;23.00;73.60;;;;;;6081783;23;20479;-75
2022/06/19 03:46:14;;;;;;;10.82;5.25;;;23.10;73.70;;;;;;6081858;23;20498;-75
2022/06/19 03:48:41;;;;;;;9.88;5.00;;;23.10;73.90;;;;;;6082556;23;20017;-75
2022/06/19 03:51:08;;;;;;;9.23;4.68;;;23.10;74.00;;;;;;6082342;23;20006;-75
2022/06/19 03:53:34;;;;;;;7.30;4.93;;;23.10;74.10;;;;;;6082960;23;20092;-75
2022/06/19 03:56:00;;;;;;;8.68;5.10;;;23.10;73.90;;;;;;6091487;23;20015;-75
2022/06/19 03:58:45;;;;;;;8.57;5.13;;;23.10;74.00;;;;;;6081286;23;20444;-75
2022/06/19 04:01:19;;;;;;;7.72;5.30;;;23.10;73.80;;;;;;6082492;23;20007;-76
2022/06/19 04:03:46;;;;;;;9.32;4.90;;;23.10;73.80;;;;;;6079726;23;20017;-69
2022/06/19 04:06:14;;;;;;;18.33;9.50;;;23.10;72.70;;;;;;6080806;23;20007;-71
2022/06/19 04:08:41;;;;;;;16.33;10.10;;;23.10;70.00;;;;;;6080583;23;20093;-71
2022/06/19 04:11:07;;;;;;;39.78;23.52;;;23.10;71.80;;;;;;6081632;23;20010;-71
2022/06/19 04:13:34;;;;;;;23.77;15.45;;;23.10;71.10;;;;;;6081346;23;20014;-70
2022/06/19 04:16:02;;;;;;;25.65;12.63;;;23.10;72.00;;;;;;6078629;23;20015;-68
2022/06/19 04:18:31;;;;;;;18.65;12.88;;;23.20;72.20;;;;;;6091245;23;20006;-72
2022/06/19 04:20:58;;;;;;;18.83;10.85;;;23.20;71.20;;;;;;6090551;23;20006;-71
2022/06/19 04:23:26;;;;;;;17.38;8.90;;;23.20;72.00;;;;;;6091556;23;20037;-71
2022/06/19 04:25:52;;;;;;;16.58;9.30;;;23.20;72.50;;;;;;6080575;23;20006;-71
2022/06/19 04:28:19;;;;;;;10.68;7.80;;;23.10;72.60;;;;;;6080898;23;20022;-71
2022/06/19 04:30:49;;;;;;;8.93;6.32;;;23.10;72.40;;;;;;6091377;23;20386;-71
2022/06/19 04:33:18;;;;;;;13.57;7.40;;;23.20;72.30;;;;;;6081511;23;20018;-72
2022/06/19 04:35:45;;;;;;;13.15;6.15;;;23.30;71.70;;;;;;6090309;23;20014;-71
2022/06/19 04:38:11;;;;;;;9.02;6.68;;;23.20;72.20;;;;;;6089247;23;20014;-71
2022/06/19 04:40:38;;;;;;;11.02;6.05;;;23.20;72.30;;;;;;6081082;23;20014;-71
2022/06/19 04:43:05;;;;;;;11.02;6.45;;;23.30;72.40;;;;;;6081577;23;20345;-80
2022/06/19 04:45:31;;;;;;;10.10;5.95;;;23.30;72.20;;;;;;6090202;23;20010;-71
2022/06/19 04:47:57;;;;;;;10.43;5.65;;;23.30;71.80;;;;;;6080949;23;20011;-71
2022/06/19 04:50:23;;;;;;;10.10;6.57;;;23.40;72.00;;;;;;6080168;23;20022;-71
2022/06/19 04:52:49;;;;;;;11.38;6.22;;;23.50;71.00;;;;;;6080941;23;20052;-71
2022/06/19 04:55:16;;;;;;;11.15;6.15;;;23.50;71.00;;;;;;6080100;23;20348;-71
2022/06/19 04:57:42;;;;;;;10.23;6.63;;;23.50;70.80;;;;;;6080225;23;20016;-70
2022/06/19 05:00:14;;;;;;;8.98;6.40;;;23.60;70.40;;;;;;6081593;23;20089;-72
2022/06/19 05:02:41;;;;;;;15.13;8.40;;;23.60;70.50;;;;;;6090147;23;20117;-72
2022/06/19 05:05:07;;;;;;;11.90;7.35;;;23.60;70.30;;;;;;6080427;23;20017;-72
2022/06/19 05:07:34;;;;;;;14.27;7.50;;;23.70;70.10;;;;;;6080358;23;20088;-71
2022/06/19 05:10:00;;;;;;;12.95;7.90;;;23.70;70.00;;;;;;6081790;23;20109;-71
2022/06/19 05:12:26;;;;;;;14.45;8.43;;;23.70;69.40;;;;;;6090973;23;20017;-72
2022/06/19 05:14:53;;;;;;;13.25;6.70;;;23.80;69.30;;;;;;6081260;23;20348;-72
2022/06/19 05:17:19;;;;;;;14.68;7.50;;;23.80;69.10;;;;;;6080694;23;20030;-72
2022/06/19 05:19:45;;;;;;;13.10;5.82;;;23.90;68.50;;;;;;6080938;23;20010;-74
2022/06/19 05:22:11;;;;;;;8.30;6.07;;;23.90;68.40;;;;;;6081526;23;20687;-76
2022/06/19 05:24:37;;;;;;;14.15;5.82;;;24.10;67.90;;;;;;6078779;23;20011;-76
2022/06/19 05:27:10;;;;;;;21.77;6.25;;;24.20;67.40;;;;;;6080825;23;20415;-77
2022/06/19 05:29:37;;;;;;;10.48;5.55;;;24.30;66.70;;;;;;6082070;23;20079;-76
2022/06/19 05:32:04;;;;;;;11.80;5.75;;;24.40;66.60;;;;;;6091511;23;20037;-76
2022/06/19 05:34:31;;;;;;;11.13;6.07;;;24.40;66.50;;;;;;6078867;23;20018;-76
2022/06/19 05:36:57;;;;;;;11.15;6.28;;;24.50;66.00;;;;;;6079824;23;20045;-76
2022/06/19 05:39:23;;;;;;;13.88;5.90;;;24.60;65.60;;;;;;6081068;23;20488;-74
2022/06/19 05:41:48;;;;;;;10.82;5.60;;;24.60;65.60;;;;;;6078381;23;20010;-73
2022/06/19 05:44:15;;;;;;;10.40;4.80;;;24.70;65.30;;;;;;6079104;23;20482;-76
2022/06/19 05:46:44;;;;;;;14.05;5.80;;;24.80;63.20;;;;;;6089900;23;20036;-74
2022/06/19 05:49:10;;;;;;;12.20;5.72;;;24.90;63.90;;;;;;6080741;23;20015;-74
2022/06/19 05:51:36;;;;;;;13.40;5.95;;;25.00;63.10;;;;;;6080795;23;20019;-76
2022/06/19 05:54:02;;;;;;;14.15;5.43;;;25.10;63.00;;;;;;6080632;23;20014;-75
2022/06/19 05:56:28;;;;;;;13.18;5.10;;;25.30;62.00;;;;;;6080366;23;20072;-75
2022/06/19 05:58:55;;;;;;;8.35;5.28;;;25.40;60.50;;;;;;6079192;23;20768;-75
2022/06/19 06:01:22;;;;;;;12.80;5.07;;;25.50;60.40;;;;;;6081572;23;20049;-75
2022/06/19 06:03:48;;;;;;;12.75;5.00;;;25.60;60.00;;;;;;6082180;23;20023;-75
2022/06/19 06:06:16;;;;;;;14.75;4.97;;;25.70;59.40;;;;;;6080464;23;20072;-74
2022/06/19 06:08:43;;;;;;;10.98;5.22;;;25.90;59.00;;;;;;6079922;23;20101;-68
2022/06/19 06:11:09;;;;;;;12.55;5.57;;;26.10;58.70;;;;;;6077913;23;20447;-75
2022/06/19 06:13:35;;;;;;;14.23;5.35;;;26.20;58.70;;;;;;6082106;23;20010;-74
2022/06/19 06:16:01;;;;;;;11.77;4.93;;;26.30;57.80;;;;;;6077072;23;20018;-75
2022/06/19 06:18:27;;;;;;;20.02;6.22;;;26.40;56.90;;;;;;6080449;23;20511;-78
2022/06/19 06:20:58;;;;;;;10.70;5.25;;;26.50;57.30;;;;;;6079007;23;20006;-73
2022/06/19 06:23:25;;;;;;;14.85;5.63;;;26.60;56.40;;;;;;6080586;23;20006;-75
2022/06/19 06:25:59;;;;;;;15.32;5.32;;;26.70;56.10;;;;;;6081245;23;20011;-76
2022/06/19 06:28:25;;;;;;;18.92;5.70;;;26.80;56.40;;;;;;6080816;23;20014;-76
2022/06/19 06:30:51;;;;;;;19.65;5.53;;;26.90;56.30;;;;;;6077942;23;20029;-76
2022/06/19 06:33:16;;;;;;;19.27;6.13;;;27.00;55.40;;;;;;6078162;23;20671;-77
2022/06/19 06:35:42;;;;;;;12.38;5.28;;;27.10;55.30;;;;;;6076585;23;20037;-76
2022/06/19 06:38:08;;;;;;;11.98;5.60;;;27.20;55.40;;;;;;6078114;23;20037;-73
2022/06/19 06:40:34;;;;;;;13.05;4.95;;;27.30;55.20;;;;;;6078399;23;20017;-74
2022/06/19 06:43:00;;;;;;;18.58;5.80;;;27.40;54.80;;;;;;6077551;23;20010;-77
2022/06/19 06:45:25;;;;;;;15.50;5.10;;;27.60;54.20;;;;;;6078982;23;20002;-73
2022/06/19 06:47:51;;;;;;;15.88;5.47;;;27.60;54.30;;;;;;6079694;23;20014;-73
2022/06/19 06:50:18;;;;;;;13.05;5.10;;;27.70;53.30;;;;;;6080462;23;20014;-74
2022/06/19 06:52:43;;;;;;;16.08;5.18;;;27.80;53.50;;;;;;6081098;23;20456;-74
2022/06/19 06:55:09;;;;;;;15.98;5.20;;;27.80;54.10;;;;;;6077739;23;20015;-73
2022/06/19 06:57:35;;;;;;;13.02;5.05;;;27.90;52.90;;;;;;6090102;23;20328;-72
2022/06/19 07:00:02;;;;;;;12.13;5.05;;;28.00;52.60;;;;;;6089800;23;20007;-73
2022/06/19 07:02:28;;;;;;;12.52;4.85;;;28.10;53.10;;;;;;6081284;23;20014;-73
2022/06/19 07:04:54;;;;;;;13.48;5.10;;;28.20;52.60;;;;;;6080078;23;20092;-73
2022/06/19 07:07:19;;;;;;;15.82;5.53;;;28.30;52.30;;;;;;6079908;23;20108;-73
2022/06/19 07:09:45;;;;;;;16.33;5.80;;;28.40;52.30;;;;;;6080128;23;20015;-68
2022/06/19 07:12:11;;;;;;;15.13;5.72;;;28.50;52.20;;;;;;6079992;23;20062;-72
2022/06/19 07:14:36;;;;;;;20.65;6.32;;;28.50;51.90;;;;;;6081486;23;20014;-72
2022/06/19 07:17:02;;;;;;;10.85;5.25;;;28.60;52.00;;;;;;6091521;23;20094;-73
2022/06/19 07:19:28;;;;;;;12.52;5.38;;;28.70;51.60;;;;;;6083437;23;20014;-72
2022/06/19 07:21:54;;;;;;;14.50;6.07;;;28.70;51.90;;;;;;6084958;23;20034;-73
2022/06/19 07:24:19;;;;;;;18.20;6.10;;;28.80;51.30;;;;;;6083466;23;20007;-72
2022/06/19 07:26:45;;;;;;;18.58;6.28;;;28.90;51.00;;;;;;6083018;23;20014;-72
2022/06/19 07:29:11;;;;;;;16.05;6.15;;;28.90;50.60;;;;;;6084367;23;20018;-73
2022/06/19 07:31:37;;;;;;;16.10;6.07;;;29.00;50.90;;;;;;6083106;23;20651;-72
2022/06/19 07:34:04;;;;;;;16.48;6.25;;;29.20;50.60;;;;;;6093569;23;20017;-73
2022/06/19 07:36:30;;;;;;;12.20;5.18;;;29.30;50.30;;;;;;6082552;23;20518;-72
2022/06/19 07:38:56;;;;;;;18.27;4.95;;;29.40;50.60;;;;;;6083189;23;20019;-72
2022/06/19 07:41:22;;;;;;;18.13;4.97;;;29.60;49.00;;;;;;6093755;23;20118;-72
2022/06/19 07:43:50;;;;;;;11.57;4.20;;;29.70;49.30;;;;;;6092815;23;20038;-73
2022/06/19 07:46:17;;;;;;;15.32;3.38;;;29.90;49.10;;;;;;6083309;23;20002;-73
2022/06/19 07:51:29;;;;;;;11.02;2.97;;;30.40;46.00;;;;;;6084476;23;20045;-73
2022/06/19 07:53:55;;;;;;;18.90;3.17;;;30.50;46.00;;;;;;6084113;23;20060;-73
2022/06/19 07:56:21;;;;;;;28.40;3.55;;;30.60;45.60;;;;;;6081938;23;20555;-73
2022/06/19 07:58:47;;;;;;;10.30;2.85;;;30.70;43.10;;;;;;6083197;23;20710;-73
2022/06/19 08:01:12;;;;;;;12.88;2.78;;;30.80;43.50;;;;;;6081967;23;20014;-73
2022/06/19 08:03:38;;;;;;;12.45;3.00;;;30.90;43.00;;;;;;6092045;23;20002;-73
2022/06/19 08:06:04;;;;;;;15.07;2.95;;;31.00;42.50;;;;;;6083554;23;20368;-73
2022/06/19 08:08:32;;;;;;;15.68;3.00;;;31.20;43.10;;;;;;6083523;23;20105;-73
2022/06/19 08:10:59;;;;;;;11.50;2.63;;;31.30;42.30;;;;;;6093346;23;20093;-73
2022/06/19 08:13:29;;;;;;;21.08;3.42;;;31.40;42.40;;;;;;6084010;23;20116;-73
2022/06/19 08:16:02;;;;;;;9.88;3.10;;;31.40;41.70;;;;;;6083785;23;20072;-73
2022/06/19 08:18:29;;;;;;;14.40;2.72;;;31.50;42.10;;;;;;6083353;23;20030;-73
2022/06/19 08:20:55;;;;;;;11.27;3.00;;;31.70;41.60;;;;;;6083123;23;20017;-73
2022/06/19 08:23:21;;;;;;;17.48;2.85;;;31.80;41.00;;;;;;6083686;23;20014;-73
2022/06/19 08:25:48;;;;;;;13.77;3.22;;;31.80;41.10;;;;;;6082141;23;20499;-73
2022/06/19 08:28:17;;;;;;;12.95;2.63;;;31.80;40.30;;;;;;6093420;23;20011;-75
2022/06/19 08:30:44;;;;;;;13.45;3.00;;;31.80;40.60;;;;;;6082663;23;20015;-72
2022/06/19 08:33:10;;;;;;;15.00;2.67;;;31.80;41.00;;;;;;6083259;23;20093;-72
2022/06/19 08:35:42;;;;;;;25.02;3.22;;;32.00;40.00;;;;;;6083765;23;20125;-73
2022/06/19 08:38:15;;;;;;;17.08;2.92;;;32.00;39.40;;;;;;6116041;23;20010;-72
2022/06/19 08:41:11;;;;;;;16.35;3.50;;;32.00;39.80;;;;;;6083974;23;20018;-73
2022/06/19 08:43:49;;;;;;;;;;;32.10;39.70;;;;;;6083737;23;20010;-73
2022/06/19 08:46:17;;;;;;;12.63;2.90;;;32.30;39.20;;;;;;6093405;23;19906;-73
2022/06/19 08:48:52;;;;;;;15.40;2.88;;;32.40;40.10;;;;;;6082789;23;20037;-73
2022/06/19 08:51:41;;;;;;;15.80;2.92;;;32.60;38.60;;;;;;6084656;23;20455;-73
2022/06/19 08:54:22;;;;;;;18.88;3.40;;;32.60;38.50;;;;;;6084618;23;20641;-73
2022/06/19 08:57:24;;;;;;;11.70;2.65;;;32.60;38.70;;;;;;6083793;23;20087;-73
2022/06/19 09:00:08;;;;;;;15.93;3.42;;;32.70;38.40;;;;;;6079938;23;20018;-73
2022/06/19 09:02:56;;;;;;;14.32;3.20;;;32.80;38.20;;;;;;6081804;23;20525;-73
2022/06/19 09:05:36;;;;;;;8.48;2.38;;;32.80;38.30;;;;;;6081728;23;20063;-74
2022/06/19 09:08:23;;;;;;;19.55;3.17;;;32.80;38.40;;;;;;6081518;23;20014;-73
2022/06/19 09:10:55;;;;;;;14.60;3.20;;;32.80;38.60;;;;;;6083299;23;20033;-71
2022/06/19 09:13:45;;;;;;;15.25;3.80;;;32.90;38.30;;;;;;6092870;23;20017;-71
2022/06/19 09:16:49;;;;;;;18.73;3.70;;;33.10;38.70;;;;;;6083664;23;20014;-74
2022/06/19 09:19:24;;;;;;;18.50;3.38;;;33.20;36.80;;;;;;6051017;23;20094;-72
2022/06/19 09:22:02;;;;;;;;;;;33.10;37.60;;;;;;6080425;23;20018;-73
2022/06/19 09:24:55;;;;;;;18.05;3.30;;;33.20;37.10;;;;;;6081245;23;20321;-73
2022/06/19 09:27:29;;;;;;;15.73;3.60;;;33.20;36.80;;;;;;6082098;23;20072;-73
2022/06/19 09:30:10;;;;;;;13.45;3.40;;;33.40;36.60;;;;;;6082859;23;20038;-73
2022/06/19 09:32:44;;;;;;;19.10;2.85;;;33.30;36.30;;;;;;6093029;23;20089;-73
2022/06/19 09:35:16;;;;;;;14.60;3.97;;;33.30;37.30;;;;;;6083330;23;20347;-73
2022/06/19 09:38:08;;;;;;;18.20;3.15;;;33.40;37.30;;;;;;6082922;23;20403;-73
2022/06/19 09:40:40;;;;;;;21.15;3.00;;;33.40;36.80;;;;;;6069886;23;20101;-72
2022/06/19 09:43:22;;;;;;;15.38;3.65;;;33.60;37.40;;;;;;6083137;23;20113;-73
2022/06/19 09:45:52;;;;;;;11.80;3.38;;;33.70;36.50;;;;;;6083134;23;20049;-72
2022/06/19 09:48:38;;;;;;;20.05;3.70;;;33.90;37.00;;;;;;6082187;23;20015;-70
2022/06/19 09:51:29;;;;;;;20.02;3.20;;;34.00;36.30;;;;;;6084029;23;20010;-73
2022/06/19 09:54:25;;;;;;;11.50;3.08;;;34.10;35.70;;;;;;6092558;23;20753;-73
2022/06/19 09:56:58;;;;;;;11.43;3.38;;;34.30;35.80;;;;;;6083268;23;20022;-77
2022/06/19 09:59:30;;;;;;;19.98;3.00;;;34.30;36.10;;;;;;6092943;23;20011;-73
2022/06/19 10:02:02;;;;;;;15.77;3.33;;;34.30;36.00;;;;;;6083689;23;20068;-73
2022/06/19 10:04:43;;;;;;;17.85;3.30;;;34.30;36.10;;;;;;6084096;23;20014;-73
2022/06/19 10:07:25;;;;;;;22.08;3.33;;;34.40;36.10;;;;;;6084350;23;20332;-72
2022/06/19 10:10:01;;;;;;;16.67;3.67;;;34.50;35.20;;;;;;6084158;23;20019;-72
2022/06/19 10:12:40;;;;;;;14.90;4.13;;;34.60;35.90;;;;;;6084014;23;20006;-72
2022/06/19 10:15:15;;;;;;;17.02;3.47;;;34.70;35.90;;;;;;6083700;23;20010;-73
2022/06/19 10:17:54;;;;;;;19.85;3.25;;;34.80;35.50;;;;;;6092060;23;20013;-72
2022/06/19 10:20:25;;;;;;;11.32;2.95;;;34.80;35.30;;;;;;6082987;23;20014;-72
2022/06/19 10:23:16;;;;;;;19.63;3.28;;;34.80;35.10;;;;;;6081802;23;20006;-72
2022/06/19 10:25:57;;;;;;;13.70;3.10;;;34.70;34.50;;;;;;6083258;23;20137;-72
2022/06/19 10:29:01;;;;;;;16.60;3.78;;;34.90;35.00;;;;;;6083167;23;20329;-76
2022/06/19 10:31:56;;;;;;;16.63;3.20;;;34.90;34.80;;;;;;6083212;23;20048;-72
2022/06/19 10:34:25;;;;;;;20.27;3.30;;;34.90;34.70;;;;;;6083598;23;20021;-73
2022/06/19 10:37:17;;;;;;;18.05;3.42;;;35.00;35.40;;;;;;6093172;23;20017;-68
2022/06/19 10:40:02;;;;;;;15.32;3.33;;;35.10;35.20;;;;;;6077071;23;20011;-70
2022/06/19 10:42:45;;;;;;;15.88;3.35;;;35.30;34.90;;;;;;6082634;23;20006;-73
2022/06/19 10:45:30;;;;;;;19.13;3.53;;;35.50;34.30;;;;;;6084401;23;20017;-73
2022/06/19 10:48:21;;;;;;;19.75;3.78;;;35.40;34.30;;;;;;6083564;23;20018;-73
2022/06/19 10:50:47;;;;;;;18.38;3.60;;;35.50;34.30;;;;;;6082609;23;20014;-73
2022/06/19 10:53:19;;;;;;;13.32;3.72;;;35.50;34.80;;;;;;6083850;23;20016;-73
2022/06/19 10:55:45;;;;;;;12.73;3.42;;;35.50;34.80;;;;;;6081997;23;20018;-73
2022/06/19 10:58:19;;;;;;;15.82;2.92;;;35.60;34.80;;;;;;6081967;23;20014;-73
2022/06/19 11:00:51;;;;;;;22.08;3.45;;;35.70;34.70;;;;;;6083306;23;20014;-73
2022/06/19 11:06:21;;;;;;;19.52;3.58;;;36.10;34.00;;;;;;6083500;23;20018;-73
2022/06/19 11:08:55;;;;;;;14.75;3.53;;;36.20;34.60;;;;;;6082887;23;20021;-73
2022/06/19 11:11:23;;;;;;;15.05;3.35;;;36.20;34.50;;;;;;6083492;23;20030;-73
2022/06/19 11:13:56;;;;;;;17.45;3.10;;;36.10;34.50;;;;;;6084077;23;20022;-73
2022/06/19 11:16:21;;;;;;;17.35;3.70;;;36.10;34.50;;;;;;6091776;23;20014;-73
2022/06/19 11:18:49;;;;;;;17.48;3.65;;;36.10;34.70;;;;;;6083685;23;20083;-73
2022/06/19 11:21:21;;;;;;;18.02;3.63;;;36.20;34.90;;;;;;6083358;23;20061;-73
2022/06/19 11:23:47;;;;;;;14.55;4.03;;;36.30;35.80;;;;;;6083103;23;20452;-73
2022/06/19 11:26:19;;;;;;;14.02;3.90;;;36.40;36.50;;;;;;6091699;23;20085;-73
2022/06/19 11:28:52;;;;;;;10.18;3.67;;;36.40;38.20;;;;;;6081685;23;20014;-73
2022/06/19 11:31:21;;;;;;;19.20;4.30;;;36.30;38.70;;;;;;6083387;23;20065;-73
2022/06/19 11:33:52;;;;;;;12.38;3.85;;;36.30;39.00;;;;;;6081198;23;20014;-73
2022/06/19 11:36:39;;;;;;;14.30;4.05;;;36.20;39.00;;;;;;6083425;23;20045;-73
2022/06/19 11:39:33;;;;;;;12.45;4.13;;;36.10;39.70;;;;;;6080245;23;20042;-73
2022/06/19 11:41:59;;;;;;;16.85;4.00;;;36.00;39.30;;;;;;6083463;23;20093;-73
2022/06/19 11:44:24;;;;;;;18.08;4.30;;;35.90;40.00;;;;;;6083285;23;20665;-73
2022/06/19 11:46:53;;;;;;;15.52;3.97;;;35.90;40.20;;;;;;6082407;23;20014;-73
2022/06/19 11:49:32;;;;;;;13.15;3.63;;;35.90;40.40;;;;;;6093464;23;20013;-73
2022/06/19 11:52:00;;;;;;;9.93;3.42;;;35.90;41.00;;;;;;6082599;23;20018;-73
2022/06/19 11:54:30;;;;;;;13.70;3.80;;;35.80;41.40;;;;;;6083703;23;20416;-73
2022/06/19 11:56:57;;;;;;;9.55;3.65;;;35.70;40.00;;;;;;6082022;23;20052;-73
2022/06/19 11:59:35;;;;;;;13.77;4.55;;;35.70;40.30;;;;;;6082676;23;20800;-73
2022/06/19 12:02:01;;;;;;;16.02;4.03;;;35.50;40.10;;;;;;6093386;23;20090;-74
2022/06/19 12:04:39;;;;;;;11.75;3.58;;;35.40;40.80;;;;;;6084737;23;20007;-73
2022/06/19 12:07:15;;;;;;;10.57;3.85;;;35.20;40.80;;;;;;6084609;23;20323;-70
2022/06/19 12:09:44;;;;;;;12.38;3.50;;;35.10;41.40;;;;;;6084145;23;20101;-75
2022/06/19 12:12:12;;;;;;;10.02;3.80;;;35.00;41.70;;;;;;6084279;23;20072;-73
2022/06/19 12:14:54;;;;;;;12.80;4.05;;;35.00;41.40;;;;;;6081116;23;20010;-73
2022/06/19 12:17:32;;;;;;;13.25;3.22;;;35.00;41.80;;;;;;6084557;23;20047;-73
2022/06/19 12:20:00;;;;;;;13.60;3.20;;;34.90;41.00;;;;;;6083492;23;20048;-73
2022/06/19 12:22:41;;;;;;;16.75;3.53;;;34.90;40.60;;;;;;6084406;23;20006;-71
2022/06/19 12:25:21;;;;;;;13.10;3.30;;;34.90;40.50;;;;;;6083736;23;20659;-73
2022/06/19 12:28:14;;;;;;;12.02;3.28;;;34.80;39.70;;;;;;6084391;23;20020;-70
2022/06/19 12:31:01;;;;;;;11.80;3.58;;;34.80;39.90;;;;;;6083343;23;20230;-73
2022/06/19 12:33:46;;;;;;;11.48;3.72;;;34.60;38.90;;;;;;6084474;23;20014;-73
2022/06/19 12:36:18;;;;;;;14.43;3.97;;;34.40;39.60;;;;;;6084610;23;20022;-73
2022/06/19 12:38:45;;;;;;;10.88;3.40;;;34.10;39.50;;;;;;6081502;23;20017;-74
2022/06/19 12:41:18;;;;;;;14.00;3.78;;;34.10;40.30;;;;;;6082283;23;20318;-74
2022/06/19 12:43:59;;;;;;;18.00;3.70;;;34.10;40.80;;;;;;6092930;23;20440;-74
2022/06/19 12:46:30;;;;;;;9.38;2.95;;;34.20;41.10;;;;;;6093334;23;20006;-74
2022/06/19 12:49:19;;;;;;;11.85;3.15;;;34.20;40.80;;;;;;6082556;23;20053;-74
2022/06/19 12:51:56;;;;;;;12.50;3.28;;;34.20;41.10;;;;;;6066717;23;20018;-74
2022/06/19 12:54:44;;;;;;;11.38;3.55;;;34.10;40.40;;;;;;6083177;23;20013;-74
2022/06/19 12:57:53;;;;;;;9.32;3.00;;;34.10;39.90;;;;;;6082084;23;20041;-74
2022/06/19 13:00:56;;;;;;;12.68;3.53;;;34.00;40.40;;;;;;6080440;23;20021;-74
2022/06/19 13:03:56;;;;;;;14.77;3.00;;;34.10;41.00;;;;;;6081049;23;20010;-74
2022/06/19 13:06:30;;;;;;;12.13;3.33;;;34.10;42.10;;;;;;6081233;23;20021;-74
2022/06/19 13:09:14;;;;;;;11.63;2.92;;;34.00;41.00;;;;;;6082982;23;20021;-74
2022/06/19 13:11:43;;;;;;;11.82;3.40;;;33.90;41.40;;;;;;6092094;23;20010;-74